Monday, February 18, 2019, 10:38 AM GMT
Back to Local

CWSS, St. Stephen, N. B.

Location: , , Canada Lat: 45.217
Local Time: 10:38 AM GMT (10:38 GMT) Lon: -67.25
Time Zone: GMT Elev: 85 ft

Show me the last for .
Show Decoded

2019-02-18 10:00 METAR CWSS 181000Z AUTO 32001KT M14/M17 RMK AO1 SOG 15 8002 SLP177 T11351172 =
2019-02-18 09:00 METAR CWSS 180900Z AUTO 00000KT M15/M17 RMK AO1 SOG 15 5008 SLP179 T11451166 =
2019-02-18 08:00 METAR CWSS 180800Z AUTO 27001KT M14/M16 RMK AO1 SOG 15 0000 SLP178 T11411164 =
2019-02-18 07:00 METAR CWSS 180700Z AUTO 34001KT M14/M17 RMK AO1 SOG 15 0002 SLP179 T11381168 =
2019-02-18 06:00 METAR CWSS 180600Z AUTO 31002KT M12/M16 RMK AO1 SOG 15 3006 SLP187 T11211163 =
2019-02-18 05:00 METAR CWSS 180500Z AUTO 31002KT M10/M16 RMK AO1 SOG 15 0000 SLP177 T10951158 =
2019-02-18 04:00 METAR CWSS 180400Z AUTO 33002KT M12/M15 RMK AO1 SOG 15 0006 SLP177 T11211151 =
2019-02-18 03:00 METAR CWSS 180300Z AUTO 31001KT M11/M15 RMK AO1 SOG 14 3003 SLP181 T11071146 =
2019-02-18 02:00 METAR CWSS 180200Z AUTO 06001KT M10/M14 RMK AO1 SOG 15 5000 SLP178 T10961144 =
2019-02-18 01:00 METAR CWSS 180100Z AUTO 30001KT M07/M15 RMK AO1 SOG 15 8003 SLP171 T10711150 =
2019-02-18 00:00 METAR CWSS 180000Z AUTO 33004KT M06/M15 RMK AO1 SOG 15 1015 SLP178 T10641151 =
2019-02-17 23:00 METAR CWSS 172300Z AUTO 30001KT M06/M16 RMK AO1 SOG 15 3012 SLP178 T10591157 =
2019-02-17 22:00 METAR CWSS 172200Z AUTO 29004KT M05/M18 RMK AO1 SOG 15 3009 SLP173 T10471181 =
2019-02-17 21:00 METAR CWSS 172100Z AUTO 31004KT M04/M17 RMK AO1 SOG 15 8004 SLP162 T10391172 =
2019-02-17 20:00 METAR CWSS 172000Z AUTO 32007KT M03/M17 RMK AO1 SOG 15 5004 SLP165 T10321167 =
2019-02-17 19:00 METAR CWSS 171900Z AUTO 28007KT M03/M17 RMK AO1 SOG 15 6015 SLP164 T10321169 =
2019-02-17 18:00 METAR CWSS 171800Z AUTO 28006KT M04/M16 RMK AO1 SOG 15 8014 SLP166 T10351156 =
2019-02-17 17:00 METAR CWSS 171700Z AUTO 32005KT M04/M15 RMK AO1 SOG 15 8005 SLP169 T10421146 =
2019-02-17 16:00 METAR CWSS 171600Z AUTO 33011G17KT M06/M16 RMK AO1 SOG 15 0012 PK WND 31018/1522
                 SLP179 T10621158 =
2019-02-17 15:00 METAR CWSS 171500Z AUTO 30007KT M07/M15 RMK AO1 SOG 15 3016 SLP180 T10701150 =
2019-02-17 14:00 METAR CWSS 171400Z AUTO 30010KT M08/M15 RMK AO1 SOG 15 1019 SLP174 T10831150 =
2019-02-17 13:00 METAR CWSS 171300Z AUTO 30007KT M10/M14 RMK AO1 SOG 15 1017 SLP167 T10951135 =
2019-02-17 12:00 METAR CWSS 171200Z AUTO 29002KT M11/M14 RMK AO1 SOG 15 3020 SLP164 T11141141 =
2019-02-17 11:00 METAR CWSS 171100Z AUTO 26003KT M11/M14 RMK AO1 SOG 15 1023 SLP155 T11121138 =

Support USWX by starting your Amazon purchase here.